Darstellungsparameter: Aktuell verwendete Einstellungen:
Skalierung der Graphiken ... ?
xyx+y,   Skalierungsfaktor:      Skalierung: Modus: x, Faktor: 1
Darstellungszeitraum ... ?
Vom - - bis: - -   Zeitraum: 05.09.2018 - 07.09.2018
Min/Max/Avg-Anzeige ... ?
Zeige MMA aktuell
Zeige MMA Monat
Zeige MMA alles
Zeige --A aktuell
Zeige --A Monat
Zeige --A alles
Keine MMA-Anzeige
MMA:
Keine MMA-Graphiken
MMA-Basis: 05.09.2018 - 07.09.2018
Quicknavigation für Darstellung... ?
Tage:      1T, 2T, 3T, 5T -1T -2T -3T -5T +1T +2T +3T +5T
Wochen: 1W, 2W, 3W -1W -2W -3W +1W +2W +3W
Monate: 1M, 3M, 6M -1M -3M -6M +1M +3M +6M
Jahre:    1J, 3J, 5J, 10J -1J -3J -5J -10J +1J +3J +5J +10J
Nutze für die Darstellung ... ?
Originaldaten oder Mittelwerte auf ...
Stundenbasis Tagesbasis Wochenbasis
Monatsbasis Jahresbasis      Datenbasis: Original-Daten
Darstellen als:
Statistik (Auto) Statistik J:M      Darstellung:
Zur Graphik,    zurück zur Übersicht aller Sensoren.
 
Tabellarische Datenbersicht: ?
 
Sensor: Nr:Datum:Temp:Feuchte:Taupunkt:
Aussen-T/F 1 05-09-2018 00:00:00 19.6 C 79 % 15.86 C
2 05-09-2018 00:05:00 19.6 C 79 % 15.86 C
3 05-09-2018 00:10:00 19.6 C 80 % 16.06 C
4 05-09-2018 00:15:00 19.6 C 80 % 16.06 C
5 05-09-2018 00:20:00 19.5 C 80 % 15.96 C
6 05-09-2018 00:25:00 19.5 C 80 % 15.96 C
7 05-09-2018 00:30:00 19.4 C 80 % 15.86 C
8 05-09-2018 00:35:00 19.4 C 80 % 15.86 C
9 05-09-2018 00:40:00 19.4 C 80 % 15.86 C
10 05-09-2018 00:45:00 19.4 C 80 % 15.86 C
11 05-09-2018 00:50:00 19.3 C 80 % 15.76 C
12 05-09-2018 00:55:00 19.3 C 80 % 15.76 C
13 05-09-2018 01:00:00 19.2 C 80 % 15.67 C
14 05-09-2018 01:05:00 19.2 C 81 % 15.86 C
15 05-09-2018 01:10:00 19.2 C 81 % 15.86 C
16 05-09-2018 01:15:00 19.2 C 81 % 15.86 C
17 05-09-2018 01:20:00 19.2 C 81 % 15.86 C
18 05-09-2018 01:25:00 19.1 C 81 % 15.76 C
19 05-09-2018 01:30:00 19.1 C 81 % 15.76 C
20 05-09-2018 01:35:00 19.1 C 81 % 15.76 C
21 05-09-2018 01:40:00 19.1 C 81 % 15.76 C
22 05-09-2018 01:45:00 19.1 C 81 % 15.76 C
23 05-09-2018 01:50:00 19 C 81 % 15.67 C
24 05-09-2018 01:55:00 18.9 C 81 % 15.57 C
25 05-09-2018 02:00:00 18.9 C 81 % 15.57 C
Sensor: Nr:Datum:Temp:Feuchte:Taupunkt:
Aussen-T/F 26 05-09-2018 02:05:00 18.8 C 82 % 15.66 C
27 05-09-2018 02:10:00 18.7 C 82 % 15.57 C
28 05-09-2018 02:15:00 18.5 C 82 % 15.37 C
29 05-09-2018 02:20:00 18.4 C 83 % 15.46 C
30 05-09-2018 02:25:00 18.3 C 83 % 15.36 C
31 05-09-2018 02:30:00 18.3 C 83 % 15.36 C
32 05-09-2018 02:35:00 18.2 C 83 % 15.27 C
33 05-09-2018 02:40:00 18.1 C 83 % 15.17 C
34 05-09-2018 02:45:00 17.9 C 84 % 15.16 C
35 05-09-2018 02:50:00 17.8 C 84 % 15.06 C
36 05-09-2018 02:55:00 17.6 C 84 % 14.87 C
37 05-09-2018 03:00:00 17.4 C 85 % 14.85 C
38 05-09-2018 03:05:00 17.3 C 85 % 14.76 C
39 05-09-2018 03:10:00 17.1 C 86 % 14.74 C
40 05-09-2018 03:15:00 17.1 C 87 % 14.92 C
41 05-09-2018 03:20:00 16.9 C 86 % 14.54 C
42 05-09-2018 03:25:00 16.8 C 87 % 14.62 C
43 05-09-2018 03:30:00 16.7 C 87 % 14.53 C
44 05-09-2018 03:35:00 16.7 C 87 % 14.53 C
45 05-09-2018 03:40:00 16.6 C 88 % 14.6 C
46 05-09-2018 03:45:00 16.5 C 88 % 14.51 C
47 05-09-2018 03:50:00 16.4 C 88 % 14.41 C
48 05-09-2018 03:55:00 16.3 C 88 % 14.31 C
49 05-09-2018 04:00:00 16.3 C 88 % 14.31 C
50 05-09-2018 04:05:00 16.2 C 89 % 14.39 C
Sensor: Nr:Datum:Temp:Feuchte:Taupunkt:
Aussen-T/F 51 05-09-2018 04:10:00 16.1 C 89 % 14.29 C
52 05-09-2018 04:15:00 16 C 89 % 14.19 C
53 05-09-2018 04:20:00 15.9 C 89 % 14.09 C
54 05-09-2018 04:25:00 15.8 C 90 % 14.16 C
55 05-09-2018 04:30:00 15.9 C 91 % 14.43 C
56 05-09-2018 04:35:00 15.8 C 90 % 14.16 C
57 05-09-2018 04:40:00 15.8 C 90 % 14.16 C
58 05-09-2018 04:45:00 15.8 C 91 % 14.33 C
59 05-09-2018 04:50:00 15.8 C 91 % 14.33 C
60 05-09-2018 04:55:00 15.8 C 91 % 14.33 C
61 05-09-2018 05:00:00 15.9 C 92 % 14.6 C
62 05-09-2018 05:05:00 16 C 92 % 14.7 C
63 05-09-2018 05:10:00 16.1 C 92 % 14.8 C
64 05-09-2018 05:15:00 16.1 C 92 % 14.8 C
65 05-09-2018 05:20:00 16.1 C 92 % 14.8 C
66 05-09-2018 05:25:00 16.2 C 92 % 14.9 C
67 05-09-2018 05:30:00 16.2 C 92 % 14.9 C
68 05-09-2018 05:35:00 16.2 C 92 % 14.9 C
69 05-09-2018 05:40:00 16.2 C 92 % 14.9 C
70 05-09-2018 05:45:00 16.2 C 92 % 14.9 C
71 05-09-2018 05:50:00 16.2 C 91 % 14.73 C
72 05-09-2018 05:55:00 16.1 C 91 % 14.63 C
73 05-09-2018 06:00:00 16.1 C 91 % 14.63 C
74 05-09-2018 06:05:00 16.1 C 91 % 14.63 C
75 05-09-2018 06:10:00 16 C 91 % 14.53 C
Sensor: Nr:Datum:Temp:Feuchte:Taupunkt:
Aussen-T/F 76 05-09-2018 06:15:00 15.9 C 91 % 14.43 C
77 05-09-2018 06:20:00 15.9 C 91 % 14.43 C
78 05-09-2018 06:25:00 15.8 C 91 % 14.33 C
79 05-09-2018 06:30:00 15.8 C 91 % 14.33 C
80 05-09-2018 06:35:00 15.7 C 91 % 14.24 C
81 05-09-2018 06:40:00 15.6 C 91 % 14.14 C
82 05-09-2018 06:45:00 15.5 C 92 % 14.21 C
83 05-09-2018 06:50:00 15.6 C 92 % 14.31 C
84 05-09-2018 06:55:00 15.5 C 92 % 14.21 C
85 05-09-2018 07:00:00 15.4 C 92 % 14.11 C
86 05-09-2018 07:05:00 15.4 C 92 % 14.11 C
87 05-09-2018 07:10:00 15.4 C 92 % 14.11 C
88 05-09-2018 07:15:00 15.3 C 92 % 14.01 C
89 05-09-2018 07:20:00 15.3 C 92 % 14.01 C
90 05-09-2018 07:25:00 15.3 C 93 % 14.18 C
91 05-09-2018 07:30:00 15.3 C 93 % 14.18 C
92 05-09-2018 07:35:00 15.3 C 93 % 14.18 C
93 05-09-2018 07:40:00 15.3 C 93 % 14.18 C
94 05-09-2018 07:45:00 15.3 C 93 % 14.18 C
95 05-09-2018 07:50:00 15.3 C 93 % 14.18 C
96 05-09-2018 07:55:00 15.4 C 93 % 14.27 C
97 05-09-2018 08:00:00 15.5 C 94 % 14.54 C
98 05-09-2018 08:05:00 15.6 C 94 % 14.64 C
99 05-09-2018 08:10:00 15.6 C 94 % 14.64 C
100 05-09-2018 08:15:00 15.7 C 93 % 14.57 C
Sensor: Nr:Datum:Temp:Feuchte:Taupunkt:
Aussen-T/F 101 05-09-2018 08:20:00 15.7 C 93 % 14.57 C
102 05-09-2018 08:25:00 15.8 C 93 % 14.67 C
103 05-09-2018 08:30:00 15.8 C 93 % 14.67 C
104 05-09-2018 08:35:00 15.9 C 94 % 14.94 C
105 05-09-2018 08:40:00 16 C 93 % 14.87 C
106 05-09-2018 08:45:00 16 C 93 % 14.87 C
107 05-09-2018 08:50:00 16.1 C 93 % 14.97 C
108 05-09-2018 08:55:00 16.1 C 93 % 14.97 C
109 05-09-2018 09:00:00 16.2 C 93 % 15.07 C
110 05-09-2018 09:05:00 16.2 C 93 % 15.07 C
111 05-09-2018 09:10:00 16.3 C 93 % 15.17 C
112 05-09-2018 09:15:00 16.4 C 93 % 15.27 C
113 05-09-2018 09:20:00 16.5 C 93 % 15.36 C
114 05-09-2018 09:25:00 16.6 C 93 % 15.46 C
115 05-09-2018 09:30:00 16.7 C 93 % 15.56 C
116 05-09-2018 09:35:00 16.8 C 93 % 15.66 C
117 05-09-2018 09:40:00 16.9 C 93 % 15.76 C
118 05-09-2018 09:45:00 17 C 93 % 15.86 C
119 05-09-2018 09:50:00 17.1 C 93 % 15.96 C
120 05-09-2018 09:55:00 17.2 C 92 % 15.89 C
121 05-09-2018 10:00:00 17.3 C 92 % 15.99 C
122 05-09-2018 10:05:00 17.4 C 92 % 16.09 C
123 05-09-2018 10:10:00 17.6 C 91 % 16.11 C
124 05-09-2018 10:15:00 17.8 C 91 % 16.31 C
125 05-09-2018 10:20:00 18 C 91 % 16.51 C
Sensor: Nr:Datum:Temp:Feuchte:Taupunkt:
Aussen-T/F 126 05-09-2018 10:25:00 18.2 C 90 % 16.53 C
127 05-09-2018 10:30:00 18.3 C 90 % 16.63 C
128 05-09-2018 10:35:00 18.5 C 89 % 16.65 C
129 05-09-2018 10:40:00 18.7 C 89 % 16.85 C
130 05-09-2018 10:45:00 18.8 C 88 % 16.77 C
131 05-09-2018 10:50:00 19 C 87 % 16.79 C
132 05-09-2018 10:55:00 19.2 C 87 % 16.98 C
133 05-09-2018 11:00:00 19.4 C 86 % 17 C
134 05-09-2018 11:05:00 19.6 C 86 % 17.19 C
135 05-09-2018 11:10:00 19.8 C 84 % 17.02 C
136 05-09-2018 11:15:00 20 C 83 % 17.02 C
137 05-09-2018 11:20:00 20.2 C 82 % 17.03 C
138 05-09-2018 11:25:00 20.6 C 81 % 17.22 C
139 05-09-2018 11:30:00 20.8 C 79 % 17.02 C
140 05-09-2018 11:35:00 21.1 C 77 % 16.91 C
141 05-09-2018 11:40:00 21.4 C 76 % 16.99 C
142 05-09-2018 11:45:00 21.7 C 75 % 17.07 C
143 05-09-2018 11:50:00 22 C 74 % 17.15 C
144 05-09-2018 11:55:00 22.3 C 73 % 17.23 C
145 05-09-2018 12:00:00 22.5 C 72 % 17.2 C
146 05-09-2018 12:05:00 22.7 C 71 % 17.17 C
147 05-09-2018 12:10:00 22.9 C 70 % 17.14 C
148 05-09-2018 12:15:00 23.1 C 69 % 17.1 C
149 05-09-2018 12:20:00 23.2 C 68 % 16.97 C
150 05-09-2018 12:25:00 23.4 C 66 % 16.69 C
Sensor: Nr:Datum:Temp:Feuchte:Taupunkt:
Aussen-T/F 151 05-09-2018 12:30:00 23.6 C 66 % 16.88 C
152 05-09-2018 12:35:00 23.7 C 66 % 16.97 C
153 05-09-2018 12:40:00 23.8 C 64 % 16.58 C
154 05-09-2018 12:45:00 24.1 C 63 % 16.62 C
155 05-09-2018 12:50:00 24.3 C 63 % 16.81 C
156 05-09-2018 12:55:00 24.4 C 62 % 16.65 C
157 05-09-2018 13:00:00 24.6 C 61 % 16.58 C
158 05-09-2018 13:05:00 24.7 C 61 % 16.67 C
159 05-09-2018 13:10:00 24.8 C 60 % 16.51 C
160 05-09-2018 13:15:00 25.1 C 58 % 16.26 C
161 05-09-2018 13:20:00 25.2 C 57 % 16.08 C
162 05-09-2018 13:25:00 25.4 C 56 % 15.99 C
163 05-09-2018 13:30:00 25.4 C 56 % 15.99 C
164 05-09-2018 13:35:00 25.6 C 56 % 16.17 C
165 05-09-2018 13:40:00 25.7 C 56 % 16.26 C
166 05-09-2018 13:45:00 25.9 C 55 % 16.17 C
167 05-09-2018 13:50:00 26.1 C 54 % 16.07 C
168 05-09-2018 13:55:00 26.2 C 53 % 15.87 C
169 05-09-2018 14:00:00 26.3 C 53 % 15.96 C
170 05-09-2018 14:05:00 26.3 C 51 % 15.36 C
171 05-09-2018 14:10:00 26.4 C 51 % 15.45 C
172 05-09-2018 14:15:00 26.4 C 51 % 15.45 C
173 05-09-2018 14:20:00 26.6 C 51 % 15.63 C
174 05-09-2018 14:25:00 26.7 C 50 % 15.42 C
175 05-09-2018 14:30:00 26.8 C 49 % 15.19 C
Sensor: Nr:Datum:Temp:Feuchte:Taupunkt:
Aussen-T/F 176 05-09-2018 14:35:00 26.8 C 50 % 15.51 C
177 05-09-2018 14:40:00 27 C 48 % 15.05 C
178 05-09-2018 14:45:00 27.2 C 47 % 14.91 C
179 05-09-2018 14:50:00 27.3 C 47 % 15 C
180 05-09-2018 14:55:00 27.3 C 47 % 15 C
181 05-09-2018 15:00:00 27.3 C 48 % 15.33 C
182 05-09-2018 15:05:00 27.4 C 48 % 15.42 C
183 05-09-2018 15:10:00 27.4 C 47 % 15.09 C
184 05-09-2018 15:15:00 27.4 C 47 % 15.09 C
185 05-09-2018 15:20:00 27.5 C 48 % 15.51 C
186 05-09-2018 15:25:00 27.6 C 47 % 15.27 C
187 05-09-2018 15:30:00 27.6 C 46 % 14.94 C
188 05-09-2018 15:35:00 27.5 C 47 % 15.18 C
189 05-09-2018 15:40:00 27.5 C 49 % 15.83 C
190 05-09-2018 15:45:00 27.4 C 48 % 15.42 C
191 05-09-2018 15:50:00 27.4 C 48 % 15.42 C
192 05-09-2018 15:55:00 27.4 C 50 % 16.06 C
193 05-09-2018 16:00:00 27.3 C 48 % 15.33 C
194 05-09-2018 16:05:00 27.3 C 52 % 16.58 C
195 05-09-2018 16:10:00 27.4 C 50 % 16.06 C
196 05-09-2018 16:15:00 27.5 C 46 % 14.85 C
197 05-09-2018 16:20:00 27.8 C 46 % 15.12 C
198 05-09-2018 16:25:00 28 C 44 % 14.61 C
199 05-09-2018 16:30:00 28.2 C 44 % 14.79 C
200 05-09-2018 16:35:00 28.4 C 43 % 14.62 C
Sensor: Nr:Datum:Temp:Feuchte:Taupunkt:
Aussen-T/F 201 05-09-2018 16:40:00 28.6 C 43 % 14.8 C
202 05-09-2018 16:45:00 28.8 C 45 % 15.68 C
203 05-09-2018 16:50:00 29.1 C 43 % 15.24 C
204 05-09-2018 16:55:00 29.2 C 43 % 15.33 C
205 05-09-2018 17:00:00 29.2 C 42 % 14.97 C
206 05-09-2018 17:05:00 29.3 C 41 % 14.68 C
207 05-09-2018 17:10:00 29.2 C 41 % 14.59 C
208 05-09-2018 17:15:00 28.9 C 41 % 14.33 C
209 05-09-2018 17:20:00 28.7 C 43 % 14.88 C
210 05-09-2018 17:25:00 28.5 C 43 % 14.71 C
211 05-09-2018 17:30:00 28.4 C 44 % 14.97 C
212 05-09-2018 17:35:00 28.3 C 50 % 16.88 C
213 05-09-2018 17:40:00 28.1 C 50 % 16.7 C
214 05-09-2018 17:45:00 27.9 C 50 % 16.51 C
215 05-09-2018 17:50:00 27.6 C 50 % 16.24 C
216 05-09-2018 17:55:00 27.3 C 52 % 16.58 C
217 05-09-2018 18:00:00 27.1 C 52 % 16.4 C
218 05-09-2018 18:05:00 26.8 C 52 % 16.12 C
219 05-09-2018 18:10:00 26.6 C 53 % 16.23 C
220 05-09-2018 18:15:00 26.4 C 53 % 16.05 C
221 05-09-2018 18:20:00 26.3 C 54 % 16.25 C
222 05-09-2018 18:25:00 26.3 C 55 % 16.54 C
223 05-09-2018 18:30:00 26.2 C 55 % 16.45 C
224 05-09-2018 18:35:00 26.2 C 56 % 16.73 C
225 05-09-2018 18:40:00 26.2 C 55 % 16.45 C
Sensor: Nr:Datum:Temp:Feuchte:Taupunkt:
Aussen-T/F 226 05-09-2018 18:45:00 26.1 C 56 % 16.64 C
227 05-09-2018 18:50:00 26 C 56 % 16.54 C
228 05-09-2018 18:55:00 25.8 C 56 % 16.36 C
229 05-09-2018 19:00:00 25.7 C 56 % 16.26 C
230 05-09-2018 19:05:00 25.4 C 57 % 16.26 C
231 05-09-2018 19:10:00 25.2 C 58 % 16.35 C
232 05-09-2018 19:15:00 25 C 57 % 15.89 C
233 05-09-2018 19:20:00 24.8 C 57 % 15.7 C
234 05-09-2018 19:25:00 24.6 C 57 % 15.52 C
235 05-09-2018 19:30:00 24.3 C 58 % 15.51 C
236 05-09-2018 19:35:00 24.1 C 58 % 15.32 C
237 05-09-2018 19:40:00 23.9 C 60 % 15.66 C
238 05-09-2018 19:45:00 23.6 C 60 % 15.38 C
239 05-09-2018 19:50:00 23.4 C 62 % 15.71 C
240 05-09-2018 19:55:00 23.2 C 63 % 15.77 C
241 05-09-2018 20:00:00 22.9 C 63 % 15.48 C
242 05-09-2018 20:05:00 22.8 C 64 % 15.64 C
243 05-09-2018 20:10:00 22.7 C 64 % 15.54 C
244 05-09-2018 20:15:00 22.7 C 66 % 16.02 C
245 05-09-2018 20:20:00 22.6 C 66 % 15.93 C
246 05-09-2018 20:25:00 22.6 C 66 % 15.93 C
247 05-09-2018 20:30:00 22.6 C 65 % 15.69 C
248 05-09-2018 20:35:00 22.7 C 65 % 15.78 C
249 05-09-2018 20:40:00 22.7 C 64 % 15.54 C
250 05-09-2018 20:45:00 22.9 C 64 % 15.73 C
Sensor: Nr:Datum:Temp:Feuchte:Taupunkt:
Aussen-T/F 251 05-09-2018 20:50:00 23 C 64 % 15.82 C
252 05-09-2018 20:55:00 23.1 C 65 % 16.16 C
253 05-09-2018 21:00:00 22.9 C 64 % 15.73 C
254 05-09-2018 21:05:00 22.8 C 65 % 15.88 C
255 05-09-2018 21:10:00 22.7 C 65 % 15.78 C
256 05-09-2018 21:15:00 22.5 C 66 % 15.83 C
257 05-09-2018 21:20:00 22.3 C 66 % 15.64 C
258 05-09-2018 21:25:00 22.1 C 66 % 15.45 C
259 05-09-2018 21:30:00 21.9 C 67 % 15.5 C
260 05-09-2018 21:35:00 21.7 C 68 % 15.54 C
261 05-09-2018 21:40:00 21.5 C 68 % 15.35 C
262 05-09-2018 21:45:00 21.3 C 69 % 15.38 C
263 05-09-2018 21:50:00 21.1 C 69 % 15.19 C
264 05-09-2018 21:55:00 21 C 70 % 15.32 C
265 05-09-2018 22:00:00 20.8 C 71 % 15.35 C
266 05-09-2018 22:05:00 20.7 C 71 % 15.25 C
267 05-09-2018 22:10:00 20.6 C 71 % 15.16 C
268 05-09-2018 22:15:00 20.5 C 71 % 15.06 C
269 05-09-2018 22:20:00 20.4 C 72 % 15.18 C
270 05-09-2018 22:25:00 20.3 C 72 % 15.09 C
271 05-09-2018 22:30:00 20.2 C 72 % 14.99 C
272 05-09-2018 22:35:00 20.1 C 73 % 15.11 C
273 05-09-2018 22:40:00 19.9 C 73 % 14.92 C
274 05-09-2018 22:45:00 19.7 C 74 % 14.94 C
275 05-09-2018 22:50:00 19.5 C 75 % 14.95 C
Sensor: Nr:Datum:Temp:Feuchte:Taupunkt:
Aussen-T/F 276 05-09-2018 22:55:00 19.3 C 75 % 14.76 C
277 05-09-2018 23:00:00 19.1 C 76 % 14.77 C
278 05-09-2018 23:05:00 18.8 C 77 % 14.68 C
279 05-09-2018 23:10:00 18.7 C 78 % 14.79 C
280 05-09-2018 23:15:00 18.6 C 78 % 14.69 C
281 05-09-2018 23:20:00 18.4 C 79 % 14.69 C
282 05-09-2018 23:25:00 18.3 C 79 % 14.6 C
283 05-09-2018 23:30:00 18.2 C 79 % 14.5 C
284 05-09-2018 23:35:00 18.2 C 80 % 14.69 C
285 05-09-2018 23:40:00 18.1 C 80 % 14.6 C
286 05-09-2018 23:45:00 17.9 C 80 % 14.4 C
287 05-09-2018 23:50:00 17.9 C 81 % 14.59 C
288 05-09-2018 23:55:00 17.8 C 81 % 14.5 C
289 06-09-2018 00:00:00 17.7 C 82 % 14.59 C
290 06-09-2018 00:05:00 17.7 C 82 % 14.59 C
291 06-09-2018 00:10:00 17.6 C 82 % 14.49 C
292 06-09-2018 00:15:00 17.5 C 83 % 14.58 C
293 06-09-2018 00:20:00 17.4 C 83 % 14.48 C
294 06-09-2018 00:25:00 17.3 C 83 % 14.39 C
295 06-09-2018 00:30:00 17.2 C 84 % 14.47 C
296 06-09-2018 00:35:00 17.1 C 84 % 14.38 C
297 06-09-2018 00:40:00 17 C 84 % 14.28 C
298 06-09-2018 00:45:00 16.9 C 84 % 14.18 C
299 06-09-2018 00:50:00 16.8 C 85 % 14.26 C
300 06-09-2018 00:55:00 16.8 C 85 % 14.26 C
Sensor: Nr:Datum:Temp:Feuchte:Taupunkt:
Aussen-T/F 301 06-09-2018 01:00:00 16.7 C 85 % 14.17 C
302 06-09-2018 01:05:00 16.7 C 86 % 14.35 C
303 06-09-2018 01:10:00 16.6 C 86 % 14.25 C
304 06-09-2018 01:15:00 16.5 C 86 % 14.15 C
305 06-09-2018 01:20:00 16.4 C 87 % 14.23 C
306 06-09-2018 01:25:00 16.4 C 87 % 14.23 C
307 06-09-2018 01:30:00 16.3 C 87 % 14.13 C
308 06-09-2018 01:35:00 16.3 C 87 % 14.13 C
309 06-09-2018 01:40:00 16.2 C 87 % 14.03 C
310 06-09-2018 01:45:00 16.2 C 88 % 14.21 C
311 06-09-2018 01:50:00 16.2 C 88 % 14.21 C
312 06-09-2018 01:55:00 16.2 C 88 % 14.21 C
313 06-09-2018 02:00:00 16.1 C 88 % 14.11 C
314 06-09-2018 02:05:00 16.1 C 88 % 14.11 C
315 06-09-2018 02:10:00 15.9 C 88 % 13.92 C
316 06-09-2018 02:15:00 15.9 C 88 % 13.92 C
317 06-09-2018 02:20:00 15.8 C 89 % 13.99 C
318 06-09-2018 02:25:00 15.8 C 89 % 13.99 C
319 06-09-2018 02:30:00 15.8 C 89 % 13.99 C
320 06-09-2018 02:35:00 15.8 C 90 % 14.16 C
321 06-09-2018 02:40:00 15.8 C 90 % 14.16 C
322 06-09-2018 02:45:00 15.8 C 90 % 14.16 C
323 06-09-2018 02:50:00 15.7 C 89 % 13.89 C
324 06-09-2018 02:55:00 15.6 C 89 % 13.79 C
325 06-09-2018 03:00:00 15.6 C 90 % 13.97 C
Sensor: Nr:Datum:Temp:Feuchte:Taupunkt:
Aussen-T/F 326 06-09-2018 03:05:00 15.5 C 90 % 13.87 C
327 06-09-2018 03:10:00 15.4 C 90 % 13.77 C
328 06-09-2018 03:15:00 15.4 C 90 % 13.77 C
329 06-09-2018 03:20:00 15.4 C 91 % 13.94 C
330 06-09-2018 03:25:00 15.4 C 91 % 13.94 C
331 06-09-2018 03:30:00 15.3 C 91 % 13.84 C
332 06-09-2018 03:35:00 15.3 C 91 % 13.84 C
333 06-09-2018 03:40:00 15.2 C 91 % 13.74 C
334 06-09-2018 03:45:00 15.2 C 91 % 13.74 C
335 06-09-2018 03:50:00 15.2 C 91 % 13.74 C
336 06-09-2018 03:55:00 15.2 C 92 % 13.91 C
337 06-09-2018 04:00:00 15.2 C 92 % 13.91 C
338 06-09-2018 04:05:00 15.2 C 92 % 13.91 C
339 06-09-2018 04:10:00 15.2 C 92 % 13.91 C
340 06-09-2018 04:15:00 15.4 C 93 % 14.27 C
341 06-09-2018 04:20:00 15.7 C 93 % 14.57 C
342 06-09-2018 04:25:00 15.8 C 93 % 14.67 C
343 06-09-2018 04:30:00 15.8 C 93 % 14.67 C
344 06-09-2018 04:35:00 15.8 C 92 % 14.5 C
345 06-09-2018 04:40:00 15.8 C 92 % 14.5 C
346 06-09-2018 04:45:00 15.8 C 92 % 14.5 C
347 06-09-2018 04:50:00 15.7 C 92 % 14.4 C
348 06-09-2018 04:55:00 15.7 C 92 % 14.4 C
349 06-09-2018 05:00:00 15.6 C 92 % 14.31 C
350 06-09-2018 05:05:00 15.5 C 92 % 14.21 C
Sensor: Nr:Datum:Temp:Feuchte:Taupunkt:
Aussen-T/F 351 06-09-2018 05:10:00 15.4 C 92 % 14.11 C
352 06-09-2018 05:15:00 15.3 C 92 % 14.01 C
353 06-09-2018 05:20:00 15.3 C 92 % 14.01 C
354 06-09-2018 05:25:00 15.2 C 92 % 13.91 C
355 06-09-2018 05:30:00 15.3 C 92 % 14.01 C
356 06-09-2018 05:35:00 15.2 C 93 % 14.08 C
357 06-09-2018 05:40:00 15.2 C 93 % 14.08 C
358 06-09-2018 05:45:00 15.2 C 92 % 13.91 C
359 06-09-2018 05:50:00 15.1 C 92 % 13.81 C
360 06-09-2018 05:55:00 15 C 92 % 13.71 C
361 06-09-2018 06:00:00 15 C 92 % 13.71 C
362 06-09-2018 06:05:00 15 C 93 % 13.88 C
363 06-09-2018 06:10:00 15.1 C 93 % 13.98 C
364 06-09-2018 06:15:00 15.2 C 93 % 14.08 C
365 06-09-2018 06:20:00 15.3 C 94 % 14.34 C
366 06-09-2018 06:25:00 15.3 C 94 % 14.34 C
367 06-09-2018 06:30:00 15.4 C 94 % 14.44 C
368 06-09-2018 06:35:00 15.4 C 94 % 14.44 C
369 06-09-2018 06:40:00 15.4 C 93 % 14.27 C
370 06-09-2018 06:45:00 15.5 C 94 % 14.54 C
371 06-09-2018 06:50:00 15.5 C 94 % 14.54 C
372 06-09-2018 06:55:00 15.6 C 94 % 14.64 C
373 06-09-2018 07:00:00 15.6 C 94 % 14.64 C
374 06-09-2018 07:05:00 15.7 C 94 % 14.74 C
375 06-09-2018 07:10:00 15.7 C 94 % 14.74 C
Sensor: Nr:Datum:Temp:Feuchte:Taupunkt:
Aussen-T/F 376 06-09-2018 07:15:00 15.8 C 94 % 14.84 C
377 06-09-2018 07:20:00 15.9 C 94 % 14.94 C
378 06-09-2018 07:25:00 16.1 C 94 % 15.13 C
379 06-09-2018 07:30:00 16.1 C 94 % 15.13 C
380 06-09-2018 07:35:00 16.1 C 94 % 15.13 C
381 06-09-2018 07:40:00 16.2 C 94 % 15.23 C
382 06-09-2018 07:45:00 16.2 C 94 % 15.23 C
383 06-09-2018 07:50:00 16.2 C 94 % 15.23 C
384 06-09-2018 07:55:00 16.2 C 94 % 15.23 C
385 06-09-2018 08:00:00 16.3 C 94 % 15.33 C
386 06-09-2018 08:05:00 16.3 C 94 % 15.33 C
387 06-09-2018 08:10:00 16.5 C 95 % 15.7 C
388 06-09-2018 08:15:00 16.6 C 94 % 15.63 C
389 06-09-2018 08:20:00 16.7 C 95 % 15.9 C
390 06-09-2018 08:25:00 16.8 C 95 % 15.99 C
391 06-09-2018 08:30:00 16.9 C 95 % 16.09 C
392 06-09-2018 08:35:00 17.1 C 95 % 16.29 C
393 06-09-2018 08:40:00 17.2 C 95 % 16.39 C
394 06-09-2018 08:45:00 17.2 C 95 % 16.39 C
395 06-09-2018 08:50:00 17.3 C 95 % 16.49 C
396 06-09-2018 08:55:00 17.4 C 95 % 16.59 C
397 06-09-2018 09:00:00 17.5 C 95 % 16.69 C
398 06-09-2018 09:05:00 17.6 C 95 % 16.79 C
399 06-09-2018 09:10:00 17.6 C 95 % 16.79 C
400 06-09-2018 09:15:00 17.7 C 95 % 16.89 C
Sensor: Nr:Datum:Temp:Feuchte:Taupunkt:
Aussen-T/F 401 06-09-2018 09:20:00 17.8 C 95 % 16.99 C
402 06-09-2018 09:25:00 17.9 C 95 % 17.09 C
403 06-09-2018 09:30:00 17.9 C 95 % 17.09 C
404 06-09-2018 09:35:00 18 C 94 % 17.02 C
405 06-09-2018 09:40:00 18.1 C 94 % 17.12 C
406 06-09-2018 09:45:00 18.2 C 94 % 17.22 C
407 06-09-2018 09:50:00 18.3 C 94 % 17.32 C
408 06-09-2018 09:55:00 18.4 C 94 % 17.42 C
409 06-09-2018 10:00:00 18.4 C 93 % 17.25 C
410 06-09-2018 10:05:00 18.4 C 93 % 17.25 C
411 06-09-2018 10:10:00 18.6 C 93 % 17.45 C
412 06-09-2018 10:15:00 18.5 C 91 % 17 C
413 06-09-2018 10:20:00 18.6 C 90 % 16.93 C
414 06-09-2018 10:25:00 18.7 C 90 % 17.03 C
415 06-09-2018 10:30:00 18.8 C 90 % 17.12 C
416 06-09-2018 10:35:00 18.9 C 88 % 16.87 C
417 06-09-2018 10:40:00 19 C 87 % 16.79 C
418 06-09-2018 10:45:00 19.1 C 87 % 16.89 C
419 06-09-2018 10:50:00 19.2 C 87 % 16.98 C
420 06-09-2018 10:55:00 19.3 C 86 % 16.9 C
421 06-09-2018 11:00:00 19.4 C 85 % 16.81 C
422 06-09-2018 11:05:00 19.6 C 84 % 16.82 C
423 06-09-2018 11:10:00 19.7 C 83 % 16.73 C
424 06-09-2018 11:15:00 19.8 C 84 % 17.02 C
425 06-09-2018 11:20:00 19.9 C 83 % 16.93 C
Sensor: Nr:Datum:Temp:Feuchte:Taupunkt:
Aussen-T/F 426 06-09-2018 11:25:00 19.9 C 82 % 16.74 C
427 06-09-2018 11:30:00 19.9 C 82 % 16.74 C
428 06-09-2018 11:35:00 20 C 82 % 16.83 C
429 06-09-2018 11:40:00 20.1 C 82 % 16.93 C
430 06-09-2018 11:45:00 20.3 C 82 % 17.13 C
431 06-09-2018 11:50:00 20.4 C 83 % 17.42 C
432 06-09-2018 11:55:00 20.7 C 81 % 17.32 C
433 06-09-2018 12:00:00 20.8 C 80 % 17.22 C
434 06-09-2018 12:05:00 20.8 C 80 % 17.22 C
435 06-09-2018 12:10:00 20.8 C 79 % 17.02 C
436 06-09-2018 12:15:00 20.7 C 79 % 16.93 C
437 06-09-2018 12:20:00 20.6 C 80 % 17.03 C
438 06-09-2018 12:25:00 20.6 C 82 % 17.42 C
439 06-09-2018 12:30:00 20.4 C 82 % 17.22 C
440 06-09-2018 12:35:00 20.4 C 83 % 17.42 C
441 06-09-2018 12:40:00 20.6 C 84 % 17.8 C
442 06-09-2018 12:45:00 20.6 C 83 % 17.61 C
443 06-09-2018 12:50:00 20.6 C 83 % 17.61 C
444 06-09-2018 12:55:00 20.7 C 84 % 17.9 C
445 06-09-2018 13:00:00 20.8 C 82 % 17.61 C
446 06-09-2018 13:05:00 20.8 C 81 % 17.42 C
447 06-09-2018 13:10:00 20.9 C 81 % 17.52 C
448 06-09-2018 13:15:00 20.8 C 82 % 17.61 C
449 06-09-2018 13:20:00 20.8 C 82 % 17.61 C
450 06-09-2018 13:25:00 20.8 C 82 % 17.61 C
Sensor: Nr:Datum:Temp:Feuchte:Taupunkt:
Aussen-T/F 451 06-09-2018 13:30:00 20.8 C 81 % 17.42 C
452 06-09-2018 13:35:00 20.8 C 82 % 17.61 C
453 06-09-2018 13:40:00 20.8 C 82 % 17.61 C
454 06-09-2018 13:45:00 20.7 C 82 % 17.52 C
455 06-09-2018 13:50:00 20.7 C 82 % 17.52 C
456 06-09-2018 13:55:00 20.8 C 81 % 17.42 C
457 06-09-2018 14:00:00 20.9 C 81 % 17.52 C
458 06-09-2018 14:05:00 21.1 C 80 % 17.51 C
459 06-09-2018 14:10:00 21.1 C 80 % 17.51 C
460 06-09-2018 14:15:00 21.1 C 80 % 17.51 C
461 06-09-2018 14:20:00 21.2 C 79 % 17.41 C
462 06-09-2018 14:25:00 21.2 C 79 % 17.41 C
463 06-09-2018 14:30:00 21.3 C 77 % 17.1 C
464 06-09-2018 14:35:00 21.5 C 77 % 17.3 C
465 06-09-2018 14:40:00 21.6 C 76 % 17.19 C
466 06-09-2018 14:45:00 21.7 C 76 % 17.28 C
467 06-09-2018 14:50:00 21.7 C 75 % 17.07 C
468 06-09-2018 14:55:00 21.8 C 75 % 17.17 C
469 06-09-2018 15:00:00 21.8 C 75 % 17.17 C
470 06-09-2018 15:05:00 21.8 C 75 % 17.17 C
471 06-09-2018 15:10:00 21.8 C 76 % 17.38 C
472 06-09-2018 15:15:00 21.8 C 75 % 17.17 C
473 06-09-2018 15:20:00 21.7 C 76 % 17.28 C
474 06-09-2018 15:25:00 21.6 C 76 % 17.19 C
475 06-09-2018 15:30:00 21.5 C 76 % 17.09 C
Sensor: Nr:Datum:Temp:Feuchte:Taupunkt:
Aussen-T/F 476 06-09-2018 15:35:00 21.4 C 77 % 17.2 C
477 06-09-2018 15:40:00 21.4 C 77 % 17.2 C
478 06-09-2018 15:45:00 21.3 C 76 % 16.9 C
479 06-09-2018 15:50:00 21.3 C 77 % 17.1 C
480 06-09-2018 15:55:00 21.2 C 76 % 16.8 C
481 06-09-2018 16:00:00 21.2 C 77 % 17.01 C
482 06-09-2018 16:05:00 21.1 C 77 % 16.91 C
483 06-09-2018 16:10:00 21.1 C 77 % 16.91 C
484 06-09-2018 16:15:00 21.1 C 78 % 17.11 C
485 06-09-2018 16:20:00 21.1 C 77 % 16.91 C
486 06-09-2018 16:25:00 21.1 C 76 % 16.7 C
487 06-09-2018 16:30:00 21.1 C 76 % 16.7 C
488 06-09-2018 16:35:00 21.2 C 76 % 16.8 C
489 06-09-2018 16:40:00 21.2 C 77 % 17.01 C
490 06-09-2018 16:45:00 21.3 C 78 % 17.31 C
491 06-09-2018 16:50:00 21.3 C 78 % 17.31 C
492 06-09-2018 16:55:00 21.3 C 78 % 17.31 C
493 06-09-2018 17:00:00 21.3 C 76 % 16.9 C
494 06-09-2018 17:05:00 21.3 C 76 % 16.9 C
495 06-09-2018 17:10:00 21.3 C 77 % 17.1 C
496 06-09-2018 17:15:00 21.3 C 77 % 17.1 C
497 06-09-2018 17:20:00 21.3 C 77 % 17.1 C
498 06-09-2018 17:25:00 21.3 C 77 % 17.1 C
499 06-09-2018 17:30:00 21.3 C 76 % 16.9 C
500 06-09-2018 17:35:00 21.3 C 76 % 16.9 C
Sensor: Nr:Datum:Temp:Feuchte:Taupunkt:
Aussen-T/F 501 06-09-2018 17:40:00 21.2 C 76 % 16.8 C
502 06-09-2018 17:45:00 21.2 C 77 % 17.01 C
503 06-09-2018 17:50:00 21.1 C 79 % 17.32 C
504 06-09-2018 17:55:00 20.9 C 80 % 17.32 C
505 06-09-2018 18:00:00 20.8 C 81 % 17.42 C
506 06-09-2018 18:05:00 20.6 C 81 % 17.22 C
507 06-09-2018 18:10:00 20.4 C 82 % 17.22 C
508 06-09-2018 18:15:00 20.3 C 82 % 17.13 C
509 06-09-2018 18:20:00 20.2 C 83 % 17.22 C
510 06-09-2018 18:25:00 20.1 C 84 % 17.31 C
511 06-09-2018 18:30:00 20 C 85 % 17.4 C
512 06-09-2018 18:35:00 19.8 C 86 % 17.39 C
513 06-09-2018 18:40:00 19.6 C 86 % 17.19 C
514 06-09-2018 18:45:00 19.4 C 87 % 17.18 C
515 06-09-2018 18:50:00 19.2 C 88 % 17.16 C
516 06-09-2018 18:55:00 19.1 C 88 % 17.07 C
517 06-09-2018 19:00:00 18.9 C 89 % 17.05 C
518 06-09-2018 19:05:00 18.8 C 90 % 17.12 C
519 06-09-2018 19:10:00 18.7 C 90 % 17.03 C
520 06-09-2018 19:15:00 18.7 C 91 % 17.2 C
521 06-09-2018 19:20:00 18.7 C 91 % 17.2 C
522 06-09-2018 19:25:00 18.6 C 91 % 17.1 C
523 06-09-2018 19:30:00 18.5 C 91 % 17 C
524 06-09-2018 19:35:00 18.4 C 91 % 16.9 C
525 06-09-2018 19:40:00 18.4 C 92 % 17.08 C
Sensor: Nr:Datum:Temp:Feuchte:Taupunkt:
Aussen-T/F 526 06-09-2018 19:45:00 18.3 C 92 % 16.98 C
527 06-09-2018 19:50:00 18.3 C 92 % 16.98 C
528 06-09-2018 19:55:00 18.3 C 92 % 16.98 C
529 06-09-2018 20:00:00 18.2 C 92 % 16.88 C
530 06-09-2018 20:05:00 18.1 C 92 % 16.78 C
531 06-09-2018 20:10:00 18.1 C 92 % 16.78 C
532 06-09-2018 20:15:00 18.1 C 92 % 16.78 C
533 06-09-2018 20:20:00 18 C 92 % 16.68 C
534 06-09-2018 20:25:00 17.9 C 92 % 16.58 C
535 06-09-2018 20:30:00 17.9 C 93 % 16.75 C
536 06-09-2018 20:35:00 17.8 C 93 % 16.65 C
537 06-09-2018 20:40:00 17.8 C 93 % 16.65 C
538 06-09-2018 20:45:00 17.8 C 93 % 16.65 C
539 06-09-2018 20:50:00 17.7 C 93 % 16.55 C
540 06-09-2018 20:55:00 17.7 C 93 % 16.55 C
541 06-09-2018 21:00:00 17.7 C 94 % 16.72 C
542 06-09-2018 21:05:00 17.7 C 93 % 16.55 C
543 06-09-2018 21:10:00 17.6 C 93 % 16.45 C
544 06-09-2018 21:15:00 17.6 C 94 % 16.62 C
545 06-09-2018 21:20:00 17.5 C 94 % 16.52 C
546 06-09-2018 21:25:00 17.4 C 94 % 16.42 C
547 06-09-2018 21:30:00 17.3 C 93 % 16.16 C
548 06-09-2018 21:35:00 17.2 C 93 % 16.06 C
549 06-09-2018 21:40:00 17.2 C 94 % 16.23 C
550 06-09-2018 21:45:00 17.1 C 94 % 16.13 C
Sensor: Nr:Datum:Temp:Feuchte:Taupunkt:
Aussen-T/F 551 06-09-2018 21:50:00 17.1 C 94 % 16.13 C
552 06-09-2018 21:55:00 17 C 94 % 16.03 C
553 06-09-2018 22:00:00 16.9 C 94 % 15.93 C
554 06-09-2018 22:05:00 16.9 C 94 % 15.93 C
555 06-09-2018 22:10:00 16.8 C 94 % 15.83 C
556 06-09-2018 22:15:00 16.8 C 94 % 15.83 C
557 06-09-2018 22:20:00 16.7 C 94 % 15.73 C
558 06-09-2018 22:25:00 16.6 C 94 % 15.63 C
559 06-09-2018 22:30:00 16.6 C 94 % 15.63 C
560 06-09-2018 22:35:00 16.4 C 94 % 15.43 C
561 06-09-2018 22:40:00 16.3 C 94 % 15.33 C
562 06-09-2018 22:45:00 16.3 C 94 % 15.33 C
563 06-09-2018 22:50:00 16.2 C 94 % 15.23 C
564 06-09-2018 22:55:00 16.2 C 94 % 15.23 C
565 06-09-2018 23:00:00 16.1 C 94 % 15.13 C
566 06-09-2018 23:05:00 16.1 C 94 % 15.13 C
567 06-09-2018 23:10:00 16 C 94 % 15.03 C
568 06-09-2018 23:15:00 15.9 C 94 % 14.94 C
569 06-09-2018 23:20:00 15.9 C 94 % 14.94 C
570 06-09-2018 23:25:00 15.9 C 94 % 14.94 C
571 06-09-2018 23:30:00 16 C 95 % 15.2 C
572 06-09-2018 23:35:00 16.1 C 95 % 15.3 C
573 06-09-2018 23:40:00 16.1 C 95 % 15.3 C
574 06-09-2018 23:45:00 16.2 C 95 % 15.4 C
575 06-09-2018 23:50:00 16.2 C 95 % 15.4 C
Sensor: Nr:Datum:Temp:Feuchte:Taupunkt:
Aussen-T/F 576 06-09-2018 23:55:00 16.3 C 95 % 15.5 C
577 07-09-2018 00:00:00 16.3 C 95 % 15.5 C
578 07-09-2018 00:05:00 16.3 C 95 % 15.5 C
579 07-09-2018 00:10:00 16.3 C 95 % 15.5 C
580 07-09-2018 00:15:00 16.2 C 95 % 15.4 C
581 07-09-2018 00:20:00 16.2 C 95 % 15.4 C
582 07-09-2018 00:25:00 16.2 C 95 % 15.4 C
583 07-09-2018 00:30:00 16.2 C 95 % 15.4 C
584 07-09-2018 00:35:00 16.1 C 95 % 15.3 C
585 07-09-2018 00:40:00 16.1 C 95 % 15.3 C
586 07-09-2018 00:45:00 16.1 C 95 % 15.3 C
587 07-09-2018 00:50:00 16.1 C 95 % 15.3 C
588 07-09-2018 00:55:00 16.2 C 95 % 15.4 C
589 07-09-2018 01:00:00 16.1 C 95 % 15.3 C
590 07-09-2018 01:05:00 16.1 C 95 % 15.3 C
591 07-09-2018 01:10:00 16.1 C 95 % 15.3 C
592 07-09-2018 01:15:00 16.1 C 95 % 15.3 C
593 07-09-2018 01:20:00 16.2 C 95 % 15.4 C
594 07-09-2018 01:25:00 16.2 C 95 % 15.4 C
595 07-09-2018 01:30:00 16.2 C 95 % 15.4 C
596 07-09-2018 01:35:00 16.1 C 95 % 15.3 C
597 07-09-2018 01:40:00 15.9 C 95 % 15.1 C
598 07-09-2018 01:45:00 15.8 C 95 % 15 C
599 07-09-2018 01:50:00 15.7 C 95 % 14.9 C
600 07-09-2018 01:55:00 15.6 C 95 % 14.8 C
Sensor: Nr:Datum:Temp:Feuchte:Taupunkt:
Aussen-T/F 601 07-09-2018 02:00:00 15.5 C 95 % 14.7 C
602 07-09-2018 02:05:00 15.4 C 95 % 14.6 C
603 07-09-2018 02:10:00 15.4 C 95 % 14.6 C
604 07-09-2018 02:15:00 15.4 C 95 % 14.6 C
605 07-09-2018 02:20:00 15.4 C 95 % 14.6 C
606 07-09-2018 02:25:00 15.4 C 95 % 14.6 C
607 07-09-2018 02:30:00 15.4 C 95 % 14.6 C
608 07-09-2018 02:35:00 15.4 C 95 % 14.6 C
609 07-09-2018 02:40:00 15.4 C 95 % 14.6 C
610 07-09-2018 02:45:00 15.4 C 95 % 14.6 C
611 07-09-2018 02:50:00 15.4 C 95 % 14.6 C
612 07-09-2018 02:55:00 15.4 C 95 % 14.6 C
613 07-09-2018 03:00:00 15.4 C 95 % 14.6 C
614 07-09-2018 03:05:00 15.4 C 95 % 14.6 C
615 07-09-2018 03:10:00 15.4 C 95 % 14.6 C
616 07-09-2018 03:15:00 15.4 C 95 % 14.6 C
617 07-09-2018 03:20:00 15.4 C 95 % 14.6 C
618 07-09-2018 03:25:00 15.4 C 95 % 14.6 C
619 07-09-2018 03:30:00 15.4 C 96 % 14.77 C
620 07-09-2018 03:35:00 15.4 C 96 % 14.77 C
621 07-09-2018 03:40:00 15.4 C 95 % 14.6 C
622 07-09-2018 03:45:00 15.4 C 95 % 14.6 C
623 07-09-2018 03:50:00 15.4 C 95 % 14.6 C
624 07-09-2018 03:55:00 15.3 C 95 % 14.5 C
625 07-09-2018 04:00:00 15.3 C 95 % 14.5 C
Sensor: Nr:Datum:Temp:Feuchte:Taupunkt:
Aussen-T/F 626 07-09-2018 04:05:00 15.3 C 95 % 14.5 C
627 07-09-2018 04:10:00 15.3 C 95 % 14.5 C
628 07-09-2018 04:15:00 15.3 C 95 % 14.5 C
629 07-09-2018 04:20:00 15.3 C 95 % 14.5 C
630 07-09-2018 04:25:00 15.2 C 95 % 14.4 C
631 07-09-2018 04:30:00 15.2 C 95 % 14.4 C
632 07-09-2018 04:35:00 15.2 C 95 % 14.4 C
633 07-09-2018 04:40:00 15.3 C 95 % 14.5 C
634 07-09-2018 04:45:00 15.3 C 95 % 14.5 C
635 07-09-2018 04:50:00 15.3 C 95 % 14.5 C
636 07-09-2018 04:55:00 15.3 C 95 % 14.5 C
637 07-09-2018 05:00:00 15.3 C 95 % 14.5 C
638 07-09-2018 05:05:00 15.3 C 95 % 14.5 C
639 07-09-2018 05:10:00 15.3 C 95 % 14.5 C
640 07-09-2018 05:15:00 15.3 C 95 % 14.5 C
641 07-09-2018 05:20:00 15.3 C 95 % 14.5 C
642 07-09-2018 05:25:00 15.3 C 95 % 14.5 C
643 07-09-2018 05:30:00 15.3 C 95 % 14.5 C
644 07-09-2018 05:35:00 15.3 C 95 % 14.5 C
645 07-09-2018 05:40:00 15.3 C 95 % 14.5 C
646 07-09-2018 05:45:00 15.3 C 95 % 14.5 C
647 07-09-2018 05:50:00 15.2 C 95 % 14.4 C
648 07-09-2018 05:55:00 14.9 C 95 % 14.11 C
649 07-09-2018 06:00:00 14.7 C 94 % 13.74 C
650 07-09-2018 06:05:00 14.6 C 94 % 13.65 C
Sensor: Nr:Datum:Temp:Feuchte:Taupunkt:
Aussen-T/F 651 07-09-2018 06:10:00 14.4 C 94 % 13.45 C
652 07-09-2018 06:15:00 14.3 C 95 % 13.51 C
653 07-09-2018 06:20:00 14.2 C 95 % 13.41 C
654 07-09-2018 06:25:00 14.1 C 94 % 13.15 C
655 07-09-2018 06:30:00 13.9 C 94 % 12.95 C
656 07-09-2018 06:35:00 13.8 C 94 % 12.85 C
657 07-09-2018 06:40:00 13.7 C 94 % 12.75 C
658 07-09-2018 06:45:00 13.7 C 95 % 12.91 C
659 07-09-2018 06:50:00 13.7 C 95 % 12.91 C
660 07-09-2018 06:55:00 13.7 C 95 % 12.91 C
661 07-09-2018 07:00:00 13.7 C 95 % 12.91 C
662 07-09-2018 07:05:00 13.7 C 95 % 12.91 C
663 07-09-2018 07:10:00 13.7 C 95 % 12.91 C
664 07-09-2018 07:15:00 13.7 C 95 % 12.91 C
665 07-09-2018 07:20:00 13.8 C 95 % 13.01 C
666 07-09-2018 07:25:00 13.8 C 95 % 13.01 C
667 07-09-2018 07:30:00 13.8 C 95 % 13.01 C
668 07-09-2018 07:35:00 13.9 C 95 % 13.11 C
669 07-09-2018 07:40:00 13.9 C 96 % 13.27 C
670 07-09-2018 07:45:00 14.1 C 96 % 13.47 C
671 07-09-2018 07:50:00 14.2 C 96 % 13.57 C
672 07-09-2018 07:55:00 14.2 C 96 % 13.57 C
673 07-09-2018 08:00:00 14.3 C 96 % 13.67 C
674 07-09-2018 08:05:00 14.4 C 96 % 13.77 C
675 07-09-2018 08:10:00 14.5 C 96 % 13.87 C
Sensor: Nr:Datum:Temp:Feuchte:Taupunkt:
Aussen-T/F 676 07-09-2018 08:15:00 14.6 C 96 % 13.97 C
677 07-09-2018 08:20:00 14.7 C 96 % 14.07 C
678 07-09-2018 08:25:00 14.8 C 96 % 14.17 C
679 07-09-2018 08:30:00 14.8 C 96 % 14.17 C
680 07-09-2018 08:35:00 14.8 C 96 % 14.17 C
681 07-09-2018 08:40:00 14.9 C 96 % 14.27 C
682 07-09-2018 08:45:00 14.9 C 96 % 14.27 C
683 07-09-2018 08:50:00 15 C 96 % 14.37 C
684 07-09-2018 08:55:00 15.1 C 96 % 14.47 C
685 07-09-2018 09:00:00 15.1 C 96 % 14.47 C
686 07-09-2018 09:05:00 15.1 C 96 % 14.47 C
687 07-09-2018 09:10:00 15.2 C 96 % 14.57 C
688 07-09-2018 09:15:00 15.2 C 96 % 14.57 C
689 07-09-2018 09:20:00 15.2 C 96 % 14.57 C
690 07-09-2018 09:25:00 15.3 C 96 % 14.67 C
691 07-09-2018 09:30:00 15.3 C 96 % 14.67 C
692 07-09-2018 09:35:00 15.5 C 96 % 14.86 C
693 07-09-2018 09:40:00 15.7 C 96 % 15.06 C
694 07-09-2018 09:45:00 15.8 C 96 % 15.16 C
695 07-09-2018 09:50:00 16 C 96 % 15.36 C
696 07-09-2018 09:55:00 16.2 C 96 % 15.56 C
697 07-09-2018 10:00:00 16.2 C 94 % 15.23 C
698 07-09-2018 10:05:00 16.3 C 93 % 15.17 C
699 07-09-2018 10:10:00 16.4 C 92 % 15.1 C
700 07-09-2018 10:15:00 16.7 C 90 % 15.05 C
Sensor: Nr:Datum:Temp:Feuchte:Taupunkt:
Aussen-T/F 701 07-09-2018 10:20:00 16.8 C 89 % 14.98 C
702 07-09-2018 10:25:00 17 C 87 % 14.82 C
703 07-09-2018 10:30:00 17.2 C 85 % 14.66 C
704 07-09-2018 10:35:00 17.3 C 84 % 14.57 C
705 07-09-2018 10:40:00 17.4 C 83 % 14.48 C
706 07-09-2018 10:45:00 17.6 C 82 % 14.49 C
707 07-09-2018 10:50:00 17.8 C 82 % 14.69 C
708 07-09-2018 10:55:00 17.9 C 80 % 14.4 C
709 07-09-2018 11:00:00 18.1 C 79 % 14.4 C
710 07-09-2018 11:05:00 18.1 C 76 % 13.81 C
711 07-09-2018 11:10:00 18.1 C 77 % 14.01 C
712 07-09-2018 11:15:00 18.1 C 75 % 13.6 C
713 07-09-2018 11:20:00 18.2 C 75 % 13.7 C
714 07-09-2018 11:25:00 18.3 C 74 % 13.59 C
715 07-09-2018 11:30:00 18.4 C 74 % 13.68 C
716 07-09-2018 11:35:00 18.6 C 75 % 14.08 C
717 07-09-2018 11:40:00 18.7 C 73 % 13.76 C
718 07-09-2018 11:45:00 18.8 C 74 % 14.07 C
719 07-09-2018 11:50:00 18.9 C 73 % 13.96 C
720 07-09-2018 11:55:00 19.1 C 73 % 14.15 C
721 07-09-2018 12:00:00 19.2 C 71 % 13.82 C
722 07-09-2018 12:05:00 19.3 C 71 % 13.91 C
723 07-09-2018 12:10:00 19.3 C 71 % 13.91 C
724 07-09-2018 12:15:00 19.4 C 70 % 13.79 C
725 07-09-2018 12:20:00 19.3 C 71 % 13.91 C
Sensor: Nr:Datum:Temp:Feuchte:Taupunkt:
Aussen-T/F 726 07-09-2018 12:25:00 19.3 C 71 % 13.91 C
727 07-09-2018 12:30:00 19.2 C 71 % 13.82 C
728 07-09-2018 12:35:00 19 C 71 % 13.63 C
729 07-09-2018 12:40:00 18.8 C 72 % 13.65 C
730 07-09-2018 12:45:00 18.7 C 73 % 13.76 C
731 07-09-2018 12:50:00 18.6 C 74 % 13.88 C
732 07-09-2018 12:55:00 18.4 C 74 % 13.68 C
733 07-09-2018 13:00:00 18.4 C 74 % 13.68 C
734 07-09-2018 13:05:00 18.4 C 75 % 13.89 C
735 07-09-2018 13:10:00 18.5 C 75 % 13.99 C
736 07-09-2018 13:15:00 18.6 C 75 % 14.08 C
737 07-09-2018 13:20:00 18.6 C 75 % 14.08 C
738 07-09-2018 13:25:00 18.8 C 74 % 14.07 C
739 07-09-2018 13:30:00 18.8 C 74 % 14.07 C
740 07-09-2018 13:35:00 18.7 C 74 % 13.97 C
741 07-09-2018 13:40:00 18.7 C 74 % 13.97 C
742 07-09-2018 13:45:00 18.7 C 74 % 13.97 C
743 07-09-2018 13:50:00 18.8 C 74 % 14.07 C
744 07-09-2018 13:55:00 18.9 C 75 % 14.37 C
745 07-09-2018 14:00:00 19.1 C 73 % 14.15 C
746 07-09-2018 14:05:00 19.2 C 72 % 14.03 C
747 07-09-2018 14:10:00 19.3 C 73 % 14.34 C
748 07-09-2018 14:15:00 19.4 C 72 % 14.22 C
749 07-09-2018 14:20:00 19.4 C 72 % 14.22 C
750 07-09-2018 14:25:00 19.4 C 72 % 14.22 C
Sensor: Nr:Datum:Temp:Feuchte:Taupunkt:
Aussen-T/F 751 07-09-2018 14:30:00 19.3 C 72 % 14.13 C
752 07-09-2018 14:35:00 19.3 C 72 % 14.13 C
753 07-09-2018 14:40:00 19.3 C 72 % 14.13 C
754 07-09-2018 14:45:00 19.3 C 71 % 13.91 C
755 07-09-2018 14:50:00 19.6 C 71 % 14.2 C
756 07-09-2018 14:55:00 19.7 C 70 % 14.08 C
757 07-09-2018 15:00:00 19.7 C 70 % 14.08 C
758 07-09-2018 15:05:00 19.7 C 71 % 14.3 C
759 07-09-2018 15:10:00 19.6 C 71 % 14.2 C
760 07-09-2018 15:15:00 19.5 C 71 % 14.1 C
761 07-09-2018 15:20:00 19.4 C 72 % 14.22 C
762 07-09-2018 15:25:00 19.3 C 72 % 14.13 C
763 07-09-2018 15:30:00 19.2 C 73 % 14.25 C
764 07-09-2018 15:35:00 18.9 C 77 % 14.78 C
765 07-09-2018 15:40:00 18.7 C 79 % 14.99 C
766 07-09-2018 15:45:00 18.7 C 80 % 15.18 C
767 07-09-2018 15:50:00 18.6 C 79 % 14.89 C
768 07-09-2018 15:55:00 18.4 C 79 % 14.69 C
769 07-09-2018 16:00:00 18.4 C 80 % 14.89 C
770 07-09-2018 16:05:00 18.2 C 79 % 14.5 C
771 07-09-2018 16:10:00 17.8 C 79 % 14.11 C
772 07-09-2018 16:15:00 17.4 C 80 % 13.92 C
773 07-09-2018 16:20:00 17.1 C 82 % 14 C
774 07-09-2018 16:25:00 16.5 C 83 % 13.6 C
775 07-09-2018 16:30:00 16.2 C 84 % 13.5 C
Sensor: Nr:Datum:Temp:Feuchte:Taupunkt:
Aussen-T/F 776 07-09-2018 16:35:00 16 C 85 % 13.48 C
777 07-09-2018 16:40:00 15.9 C 85 % 13.38 C
778 07-09-2018 16:45:00 15.8 C 86 % 13.46 C
779 07-09-2018 16:50:00 15.7 C 87 % 13.54 C
780 07-09-2018 16:55:00 15.6 C 88 % 13.62 C
781 07-09-2018 17:00:00 15.6 C 88 % 13.62 C
782 07-09-2018 17:05:00 15.6 C 90 % 13.97 C
783 07-09-2018 17:10:00 15.6 C 90 % 13.97 C
784 07-09-2018 17:15:00 15.5 C 89 % 13.7 C
785 07-09-2018 17:20:00 15.5 C 89 % 13.7 C
786 07-09-2018 17:25:00 15.6 C 87 % 13.45 C
787 07-09-2018 17:30:00 15.6 C 87 % 13.45 C
788 07-09-2018 17:35:00 15.7 C 88 % 13.72 C
789 07-09-2018 17:40:00 15.8 C 85 % 13.28 C
790 07-09-2018 17:45:00 16 C 85 % 13.48 C
791 07-09-2018 17:50:00 16.2 C 84 % 13.5 C
792 07-09-2018 17:55:00 16.3 C 84 % 13.59 C
793 07-09-2018 18:00:00 16.3 C 83 % 13.41 C
794 07-09-2018 18:05:00 16.3 C 82 % 13.22 C
795 07-09-2018 18:10:00 16.3 C 83 % 13.41 C
796 07-09-2018 18:15:00 16.4 C 86 % 14.05 C
797 07-09-2018 18:20:00 16.5 C 86 % 14.15 C
798 07-09-2018 18:25:00 16.6 C 87 % 14.43 C
799 07-09-2018 18:30:00 16.5 C 86 % 14.15 C
800 07-09-2018 18:35:00 16.4 C 87 % 14.23 C
Sensor: Nr:Datum:Temp:Feuchte:Taupunkt:
Aussen-T/F 801 07-09-2018 18:40:00 16.3 C 87 % 14.13 C
802 07-09-2018 18:45:00 16.3 C 87 % 14.13 C
803 07-09-2018 18:50:00 16.2 C 88 % 14.21 C
804 07-09-2018 18:55:00 16.1 C 86 % 13.76 C
805 07-09-2018 19:00:00 16 C 88 % 14.01 C
806 07-09-2018 19:05:00 16 C 88 % 14.01 C
807 07-09-2018 19:10:00 16.2 C 89 % 14.39 C
808 07-09-2018 19:15:00 16.4 C 90 % 14.76 C
809 07-09-2018 19:20:00 16.6 C 87 % 14.43 C
810 07-09-2018 19:25:00 16.5 C 79 % 12.85 C
811 07-09-2018 19:30:00 16.4 C 75 % 11.96 C
812 07-09-2018 19:35:00 16.4 C 78 % 12.56 C
813 07-09-2018 19:40:00 16.3 C 78 % 12.46 C
814 07-09-2018 19:45:00 15.9 C 78 % 12.07 C
815 07-09-2018 19:50:00 15.6 C 79 % 11.97 C
816 07-09-2018 19:55:00 15.3 C 80 % 11.87 C
817 07-09-2018 20:00:00 15.1 C 81 % 11.87 C
818 07-09-2018 20:05:00 14.8 C 81 % 11.57 C
819 07-09-2018 20:10:00 14.4 C 81 % 11.18 C
820 07-09-2018 20:15:00 14.2 C 82 % 11.17 C
821 07-09-2018 20:20:00 13.9 C 82 % 10.88 C
822 07-09-2018 20:25:00 13.8 C 84 % 11.15 C
823 07-09-2018 20:30:00 13.6 C 84 % 10.95 C
824 07-09-2018 20:35:00 13.4 C 84 % 10.75 C
825 07-09-2018 20:40:00 13.2 C 84 % 10.56 C
Sensor: Nr:Datum:Temp:Feuchte:Taupunkt:
Aussen-T/F 826 07-09-2018 20:45:00 13.2 C 85 % 10.74 C
827 07-09-2018 20:50:00 13.1 C 84 % 10.46 C
828 07-09-2018 20:55:00 12.9 C 84 % 10.26 C
829 07-09-2018 21:00:00 12.8 C 84 % 10.17 C
830 07-09-2018 21:05:00 12.8 C 84 % 10.17 C
831 07-09-2018 21:10:00 12.7 C 84 % 10.07 C
832 07-09-2018 21:15:00 12.7 C 84 % 10.07 C
833 07-09-2018 21:20:00 12.7 C 84 % 10.07 C
834 07-09-2018 21:25:00 12.7 C 84 % 10.07 C
835 07-09-2018 21:30:00 12.6 C 85 % 10.15 C
836 07-09-2018 21:35:00 12.6 C 84 % 9.97 C
837 07-09-2018 21:40:00 12.4 C 85 % 9.95 C
838 07-09-2018 21:45:00 12.4 C 85 % 9.95 C
839 07-09-2018 21:50:00 12.3 C 86 % 10.03 C
840 07-09-2018 21:55:00 12.3 C 86 % 10.03 C
841 07-09-2018 22:00:00 12.2 C 86 % 9.93 C
842 07-09-2018 22:05:00 12.2 C 86 % 9.93 C
843 07-09-2018 22:10:00 12.1 C 86 % 9.83 C
844 07-09-2018 22:15:00 12 C 86 % 9.73 C
845 07-09-2018 22:20:00 11.9 C 87 % 9.81 C
846 07-09-2018 22:25:00 11.8 C 87 % 9.71 C
847 07-09-2018 22:30:00 11.8 C 87 % 9.71 C
848 07-09-2018 22:35:00 11.7 C 87 % 9.61 C
849 07-09-2018 22:40:00 11.7 C 87 % 9.61 C
850 07-09-2018 22:45:00 11.6 C 88 % 9.68 C
Sensor: Nr:Datum:Temp:Feuchte:Taupunkt:
Aussen-T/F 851 07-09-2018 22:50:00 11.5 C 87 % 9.41 C
852 07-09-2018 22:55:00 11.4 C 87 % 9.32 C
853 07-09-2018 23:00:00 11.3 C 88 % 9.39 C
854 07-09-2018 23:05:00 11.3 C 88 % 9.39 C
855 07-09-2018 23:10:00 11.2 C 88 % 9.29 C
856 07-09-2018 23:15:00 11.2 C 88 % 9.29 C
857 07-09-2018 23:20:00 11.1 C 88 % 9.19 C
858 07-09-2018 23:25:00 11 C 88 % 9.09 C
859 07-09-2018 23:30:00 10.9 C 88 % 8.99 C
860 07-09-2018 23:35:00 10.8 C 88 % 8.89 C
861 07-09-2018 23:40:00 10.7 C 88 % 8.8 C
862 07-09-2018 23:45:00 10.6 C 88 % 8.7 C
863 07-09-2018 23:50:00 10.4 C 88 % 8.5 C
864 07-09-2018 23:55:00 10.3 C 89 % 8.57 C

Legende:
   Min
   Max


Maximal/Minimal-Werte vom 05.09.2018 - 07.09.2018

Sensor Min Max Avg
Temp
(Aussen-T/F)
10.3 °C
07-09-2018  23:55:00
29.3 °C
05-09-2018  17:05:00
18.24 °C
Feuchte
(Aussen-T/F)
41 %
05-09-2018  17:05:00
96 %
07-09-2018  03:30:00
82.66 %
Taupunkt
(Aussen-T/F)
8.5 C
07-09-2018  23:50:00
17.9 C
06-09-2018  12:55:00
14.94 C

Die Daten stammen von einer Davis Vantage Pro 2 Wetter-Station und werden unter Linux mit der Software wview2wettercgi und aufbereitet. Alle Angaben erfolgen ohne Gewähr für ihre Vollständigkeit oder Richtigkeit.
Kontakt: Rainer Krienke krienke@uni-koblenz.de . Meine Webseiten an der Uni Koblenz oder privat.
Version: $Revision: 0.78 $